Time;durP1;ratioP1;P1;durP2;ratioP2;P2;SDS_P1;SDS_P2;PMS_P1;PMS_P2;Temp;Humidity;BMP_temperature;BMP_pressure;BME280_temperature;BME280_humidity;BME280_pressure;Samples;Min_cycle;Max_cycle;Signal;HPM_P1;HPM_P2
2022/09/18 00:02:20;;;;;;;3.70;1.20;;;;;;;11.10;100.00;100430.25;4984447;28;20300;-75
2022/09/18 00:04:45;;;;;;;3.00;1.10;;;;;;;11.11;100.00;100439.75;4983187;28;20247;-75
2022/09/18 00:07:11;;;;;;;2.00;0.93;;;;;;;11.09;100.00;100433.72;4982978;28;20565;-75
2022/09/18 00:09:36;;;;;;;2.50;1.00;;;;;;;11.09;100.00;100444.06;4977578;28;20241;-75
2022/09/18 00:12:02;;;;;;;2.70;1.10;;;;;;;11.08;100.00;100433.75;4982783;28;20259;-76
2022/09/18 00:14:27;;;;;;;1.97;1.10;;;;;;;11.09;100.00;100428.53;4975694;28;20194;-76
2022/09/18 00:16:52;;;;;;;1.83;1.13;;;;;;;11.11;100.00;100437.16;4976122;28;20660;-75
2022/09/18 00:19:19;;;;;;;3.43;1.13;;;;;;;11.11;100.00;100441.50;4978883;28;20226;-74
2022/09/18 00:21:47;;;;;;;4.57;1.20;;;;;;;11.11;100.00;100439.75;4984268;28;20204;-74
2022/09/18 00:24:13;;;;;;;3.50;1.30;;;;;;;11.09;100.00;100441.47;4981880;28;20178;-75
2022/09/18 00:26:38;;;;;;;1.00;0.90;;;;;;;11.07;100.00;100440.63;4982161;28;20740;-74
2022/09/18 00:29:04;;;;;;;2.53;1.10;;;;;;;11.07;100.00;100434.59;4977133;28;20440;-75
2022/09/18 00:31:32;;;;;;;2.17;1.10;;;;;;;11.06;100.00;100436.31;4976485;28;20717;-75
2022/09/18 00:34:01;;;;;;;1.30;0.80;;;;;;;11.05;100.00;100434.59;4979690;28;20196;-75
2022/09/18 00:36:28;;;;;;;2.30;1.03;;;;;;;11.08;100.00;100432.00;4982761;28;20195;-75
2022/09/18 00:38:54;;;;;;;1.80;0.97;;;;;;;11.09;100.00;100433.72;4980201;28;20196;-75
2022/09/18 00:41:26;;;;;;;2.10;0.90;;;;;;;11.10;100.00;100434.59;4986600;28;20193;-75
2022/09/18 00:44:11;;;;;;;3.13;1.00;;;;;;;11.08;100.00;100431.16;4980452;28;20173;-75
2022/09/18 00:46:36;;;;;;;3.53;1.00;;;;;;;11.07;100.00;100434.59;4980555;28;20201;-75
2022/09/18 00:49:14;;;;;;;3.57;1.30;;;;;;;11.06;100.00;100423.38;4978584;28;20837;-76
2022/09/18 00:51:42;;;;;;;2.20;0.90;;;;;;;11.05;100.00;100433.75;4982242;28;20193;-76
2022/09/18 00:54:19;;;;;;;2.50;1.13;;;;;;;11.06;100.00;100438.06;4981851;28;20185;-74
2022/09/18 00:56:46;;;;;;;4.00;1.17;;;;;;;11.06;100.00;100438.91;4981455;28;20193;-76
2022/09/18 00:59:14;;;;;;;3.97;1.40;;;;;;;11.11;100.00;100442.34;4987348;28;20204;-75
2022/09/18 01:01:40;;;;;;;1.00;0.73;;;;;;;11.07;100.00;100430.28;4983694;28;20243;-75
2022/09/18 01:04:11;;;;;;;3.37;0.97;;;;;;;11.04;100.00;100432.03;4977624;28;20672;-74
2022/09/18 01:06:45;;;;;;;3.10;1.10;;;;;;;11.06;100.00;100432.88;4980217;28;20204;-75
2022/09/18 01:09:21;;;;;;;3.47;1.27;;;;;;;11.07;100.00;100429.44;4981958;28;20228;-74
2022/09/18 01:11:59;;;;;;;3.57;1.40;;;;;;;11.07;100.00;100422.50;4983092;28;21322;-74
2022/09/18 01:14:39;;;;;;;2.30;1.03;;;;;;;11.07;100.00;100432.88;4977872;28;20255;-74
2022/09/18 01:17:27;;;;;;;5.13;1.20;;;;;;;11.12;100.00;100427.63;4984735;28;20336;-75
2022/09/18 01:20:17;;;;;;;1.87;1.23;;;;;;;11.05;100.00;100433.75;4985367;28;20658;-75
2022/09/18 01:23:08;;;;;;;3.03;1.10;;;;;;;11.05;100.00;100428.59;4978155;28;20193;-74
2022/09/18 01:26:21;;;;;;;2.13;1.10;;;;;;;11.02;100.00;100426.00;4975602;28;20249;-75
2022/09/18 01:29:22;;;;;;;2.57;1.20;;;;;;;11.01;100.00;100424.28;4943373;28;20276;-74
2022/09/18 01:31:57;;;;;;;3.27;1.10;;;;;;;10.98;100.00;100431.22;4968471;28;20272;-73
2022/09/18 01:34:45;;;;;;;2.67;1.40;;;;;;;10.97;100.00;100426.91;4983953;28;20177;-75
2022/09/18 01:37:16;;;;;;;2.83;1.23;;;;;;;10.97;100.00;100426.06;4996655;28;20292;-75
2022/09/18 01:39:49;;;;;;;3.30;1.33;;;;;;;10.97;100.00;100424.31;4979551;28;20210;-74
2022/09/18 01:42:17;;;;;;;3.93;1.20;;;;;;;10.98;100.00;100438.13;4981042;28;20212;-73
2022/09/18 01:44:44;;;;;;;5.07;1.20;;;;;;;10.96;100.00;100430.38;4980782;28;20688;-74
2022/09/18 01:47:13;;;;;;;3.77;1.30;;;;;;;10.97;100.00;100429.50;4984328;28;20201;-75
2022/09/18 01:49:44;;;;;;;2.30;1.13;;;;;;;10.96;100.00;100439.88;4981457;28;21294;-75
2022/09/18 01:52:16;;;;;;;2.57;1.20;;;;;;;10.94;100.00;100439.91;4979758;28;20296;-75
2022/09/18 01:54:44;;;;;;;2.30;1.10;;;;;;;10.94;100.00;100439.91;4974829;28;20182;-75
2022/09/18 01:57:14;;;;;;;2.53;1.30;;;;;;;10.97;100.00;100442.44;4981786;28;20213;-74
2022/09/18 01:59:49;;;;;;;2.40;1.10;;;;;;;11.00;100.00;100438.97;4984193;28;20246;-74
2022/09/18 02:02:26;;;;;;;2.00;1.10;;;;;;;11.02;100.00;100444.13;4981255;28;20192;-75
2022/09/18 02:04:56;;;;;;;3.27;1.03;;;;;;;11.06;100.00;100440.66;4982600;28;20275;-75
2022/09/18 02:08:13;;;;;;;3.03;1.30;;;;;;;11.04;100.00;100434.63;4987814;28;20316;-74
2022/09/18 02:10:43;;;;;;;3.40;1.20;;;;;;;11.07;100.00;100434.59;4975360;28;20217;-76
2022/09/18 02:13:14;;;;;;;3.20;1.43;;;;;;;11.04;100.00;100445.00;4985063;28;20190;-74
2022/09/18 02:15:42;;;;;;;4.43;1.40;;;;;;;11.03;100.00;100440.69;4977316;28;20186;-74
2022/09/18 02:18:15;;;;;;;2.93;1.27;;;;;;;11.05;100.00;100441.53;4982184;28;20177;-76
2022/09/18 02:20:43;;;;;;;1.77;1.07;;;;;;;11.05;100.00;100431.16;4981978;28;20218;-74
2022/09/18 02:23:09;;;;;;;3.33;1.20;;;;;;;11.03;100.00;100425.13;4983711;28;20197;-74
2022/09/18 02:25:43;;;;;;;2.53;1.10;;;;;;;10.99;100.00;100429.50;4978025;28;20198;-75
2022/09/18 02:28:11;;;;;;;3.03;1.20;;;;;;;11.00;100.00;100422.56;4974189;28;20207;-74
2022/09/18 02:30:38;;;;;;;2.10;1.00;;;;;;;11.02;100.00;100428.59;4979722;28;20753;-75
2022/09/18 02:33:20;;;;;;;1.80;0.90;;;;;;;11.03;100.00;100423.44;4984667;28;20185;-74
2022/09/18 02:35:52;;;;;;;3.40;1.20;;;;;;;11.02;100.00;100423.41;4994798;28;20182;-74
2022/09/18 02:38:50;;;;;;;2.20;0.90;;;;;;;11.02;100.00;100423.41;4980811;28;20176;-75
2022/09/18 02:41:59;;;;;;;2.53;1.20;;;;;;;11.00;100.00;100427.75;4952751;28;20208;-74
2022/09/18 02:44:26;;;;;;;2.43;1.10;;;;;;;11.00;100.00;100418.28;4951249;28;20201;-75
2022/09/18 02:47:20;;;;;;;3.37;1.20;;;;;;;11.03;100.00;100417.38;4982254;28;20286;-74
2022/09/18 02:50:00;;;;;;;2.83;1.10;;;;;;;11.01;100.00;100407.03;4980304;28;20602;-75
2022/09/18 02:52:44;;;;;;;4.43;1.27;;;;;;;11.01;100.00;100400.97;4980100;28;20604;-75
2022/09/18 02:55:20;;;;;;;2.77;1.27;;;;;;;10.99;100.00;100406.19;4978201;28;20239;-75
2022/09/18 02:57:57;;;;;;;2.80;1.10;;;;;;;10.98;100.00;100409.66;4977250;28;20515;-75
2022/09/18 03:00:24;;;;;;;3.77;1.10;;;;;;;10.97;100.00;100403.59;4973536;28;20202;-75
2022/09/18 03:02:50;;;;;;;2.30;1.33;;;;;;;10.98;100.00;100413.09;4980270;28;20189;-75
2022/09/18 03:05:16;;;;;;;2.40;1.20;;;;;;;10.96;100.00;100409.66;4982692;28;20250;-75
2022/09/18 03:07:42;;;;;;;2.57;1.00;;;;;;;10.96;100.00;100409.66;4985079;28;20579;-75
2022/09/18 03:10:08;;;;;;;3.73;1.70;;;;;;;11.01;100.00;100409.63;4980082;28;20221;-74
2022/09/18 03:12:33;;;;;;;3.03;1.00;;;;;;;10.98;100.00;100404.47;4977306;28;20186;-75
2022/09/18 03:14:59;;;;;;;2.60;1.00;;;;;;;10.96;100.00;100404.50;4980798;28;20663;-75
2022/09/18 03:17:24;;;;;;;3.50;1.40;;;;;;;10.99;100.00;100401.00;4978864;28;20555;-76
2022/09/18 03:19:49;;;;;;;4.93;1.40;;;;;;;11.00;100.00;100405.31;4980869;28;20205;-75
2022/09/18 03:22:15;;;;;;;3.30;1.20;;;;;;;10.97;100.00;100405.34;4982612;28;20185;-75
2022/09/18 03:24:40;;;;;;;2.57;1.30;;;;;;;10.94;100.00;100395.88;4971990;28;20198;-74
2022/09/18 03:27:05;;;;;;;2.33;1.07;;;;;;;10.95;100.00;100404.50;4975487;28;20193;-75
2022/09/18 03:29:31;;;;;;;3.03;1.47;;;;;;;10.92;100.00;100402.78;4980020;28;20296;-77
2022/09/18 03:31:57;;;;;;;2.63;1.63;;;;;;;10.90;100.00;100401.94;4978637;28;20260;-74
2022/09/18 03:34:22;;;;;;;2.40;1.33;;;;;;;10.89;100.00;100402.81;4976597;28;20182;-75
2022/09/18 03:36:47;;;;;;;1.80;1.10;;;;;;;10.89;100.00;100408.00;4974310;28;20260;-75
2022/09/18 03:39:13;;;;;;;3.97;1.20;;;;;;;10.90;100.00;100401.06;4978019;28;20303;-75
2022/09/18 03:41:38;;;;;;;2.10;1.30;;;;;;;10.89;100.00;100405.41;4981968;28;20186;-75
2022/09/18 03:44:04;;;;;;;2.37;1.30;;;;;;;10.86;100.00;100402.84;4980738;28;20568;-74
2022/09/18 03:46:29;;;;;;;2.90;1.40;;;;;;;10.82;100.00;100403.72;4973972;28;20221;-75
2022/09/18 03:48:55;;;;;;;5.97;1.33;;;;;;;10.87;100.00;100406.28;4983316;28;21218;-75
2022/09/18 03:51:21;;;;;;;5.17;1.47;;;;;;;10.86;100.00;100412.34;4980824;28;20188;-75
2022/09/18 03:53:47;;;;;;;3.87;1.30;;;;;;;10.82;100.00;100412.38;4970515;28;20717;-75
2022/09/18 03:56:13;;;;;;;4.50;1.67;;;;;;;10.86;100.00;100409.75;4984061;28;20181;-75
2022/09/18 03:58:39;;;;;;;4.60;1.37;;;;;;;10.86;100.00;100402.84;4975759;28;20185;-74
2022/09/18 04:01:05;;;;;;;3.97;1.50;;;;;;;10.85;100.00;100413.22;4984111;28;20235;-76
2022/09/18 04:03:32;;;;;;;1.97;1.40;;;;;;;10.87;100.00;100417.50;4979261;28;20216;-75
2022/09/18 04:05:57;;;;;;;2.23;1.23;;;;;;;10.88;100.00;100418.38;4975222;28;20566;-75
2022/09/18 04:08:23;;;;;;;3.43;1.50;;;;;;;10.86;100.00;100420.13;4980991;28;20201;-74
2022/09/18 04:10:48;;;;;;;4.20;1.43;;;;;;;10.88;100.00;100415.78;4977137;28;20228;-74
2022/09/18 04:13:14;;;;;;;2.27;1.30;;;;;;;10.88;100.00;100416.63;4977051;28;20192;-74
2022/09/18 04:15:40;;;;;;;2.47;1.33;;;;;;;10.88;100.00;100415.78;4978968;28;20263;-74
2022/09/18 04:18:05;;;;;;;2.87;1.33;;;;;;;10.83;100.00;100416.66;4981113;28;20236;-74
2022/09/18 04:20:31;;;;;;;2.97;1.10;;;;;;;10.85;100.00;100413.22;4973127;28;20255;-74
2022/09/18 04:22:59;;;;;;;1.80;1.20;;;;;;;10.86;100.00;100409.75;4971303;28;20182;-74
2022/09/18 04:25:24;;;;;;;2.50;1.20;;;;;;;10.86;100.00;100418.38;4975227;28;20216;-75
2022/09/18 04:27:51;;;;;;;2.37;1.37;;;;;;;10.88;100.00;100414.03;4991968;28;20209;-74
2022/09/18 04:30:16;;;;;;;3.50;1.40;;;;;;;10.89;100.00;100407.16;4977469;28;20214;-74
2022/09/18 04:32:43;;;;;;;2.30;1.13;;;;;;;10.86;100.00;100410.59;4981766;28;20198;-74
2022/09/18 04:35:09;;;;;;;3.60;1.40;;;;;;;10.86;100.00;100413.19;4981592;28;20204;-74
2022/09/18 04:37:34;;;;;;;3.27;1.00;;;;;;;10.85;100.00;100408.03;4976477;28;20194;-74
2022/09/18 04:39:59;;;;;;;2.73;1.13;;;;;;;10.89;100.00;100412.31;4972573;28;20201;-74
2022/09/18 04:42:24;;;;;;;1.80;1.10;;;;;;;10.88;100.00;100415.78;4985588;28;20173;-74
2022/09/18 04:44:50;;;;;;;2.70;1.37;;;;;;;10.87;100.00;100416.66;5006829;28;20181;-73
2022/09/18 04:47:15;;;;;;;2.70;1.23;;;;;;;10.87;100.00;100417.50;5000956;28;20240;-75
2022/09/18 04:49:40;;;;;;;4.03;1.30;;;;;;;10.88;100.00;100423.56;4980070;28;20259;-75
2022/09/18 04:52:06;;;;;;;1.30;1.00;;;;;;;10.87;100.00;100422.69;4981863;28;20209;-74
2022/09/18 04:54:31;;;;;;;3.20;1.43;;;;;;;10.91;100.00;100426.09;4978432;28;20664;-75
2022/09/18 04:56:56;;;;;;;3.33;1.33;;;;;;;10.90;100.00;100414.88;4979469;28;20185;-74
2022/09/18 04:59:22;;;;;;;3.63;1.27;;;;;;;10.90;100.00;100412.31;4978159;28;20197;-74
2022/09/18 05:01:47;;;;;;;2.73;1.20;;;;;;;10.93;100.00;100411.41;4980623;28;20201;-74
2022/09/18 05:04:13;;;;;;;2.87;1.30;;;;;;;10.94;100.00;100421.78;4972036;28;20198;-74
2022/09/18 05:06:38;;;;;;;2.50;1.20;;;;;;;10.93;100.00;100427.81;4975745;28;20197;-74
2022/09/18 05:09:04;;;;;;;3.23;1.40;;;;;;;10.94;100.00;100426.06;4974124;28;20236;-74
2022/09/18 05:11:29;;;;;;;2.63;1.17;;;;;;;10.94;100.00;100420.91;4978193;28;20197;-74
2022/09/18 05:13:55;;;;;;;2.33;1.20;;;;;;;10.95;100.00;100425.19;4982549;28;21788;-75
2022/09/18 05:16:25;;;;;;;2.47;1.17;;;;;;;10.97;100.00;100413.09;4977801;28;20245;-75
2022/09/18 05:18:51;;;;;;;3.07;1.30;;;;;;;11.01;100.00;100419.97;4979707;28;20220;-75
2022/09/18 05:21:17;;;;;;;4.27;1.83;;;;;;;10.98;100.00;100418.25;4972884;28;20223;-74
2022/09/18 05:23:44;;;;;;;1.93;1.03;;;;;;;10.96;100.00;100421.75;4975687;28;20197;-74
2022/09/18 05:26:10;;;;;;;2.57;1.00;;;;;;;10.94;100.00;100418.31;4978139;28;20224;-75
2022/09/18 05:28:35;;;;;;;3.43;1.30;;;;;;;10.96;100.00;100424.34;4978971;28;20208;-74
2022/09/18 05:31:01;;;;;;;2.77;1.40;;;;;;;10.94;100.00;100423.47;4982905;28;20213;-74
2022/09/18 05:33:26;;;;;;;1.97;1.10;;;;;;;10.96;100.00;100435.56;4980880;28;20305;-74
2022/09/18 05:35:53;;;;;;;2.40;1.27;;;;;;;10.96;100.00;100425.22;4979427;28;20523;-74
2022/09/18 05:38:19;;;;;;;3.27;1.00;;;;;;;10.98;100.00;100423.44;4971047;28;20182;-74
2022/09/18 05:40:45;;;;;;;1.90;1.00;;;;;;;11.00;100.00;100430.34;4976240;28;20214;-75
2022/09/18 05:43:10;;;;;;;1.73;0.97;;;;;;;11.02;100.00;100424.28;4980557;28;20192;-74
2022/09/18 05:45:36;;;;;;;2.43;0.87;;;;;;;11.04;100.00;100432.03;4981184;28;20188;-74
2022/09/18 05:48:07;;;;;;;3.27;1.40;;;;;;;11.08;100.00;100429.41;4985810;28;20205;-74
2022/09/18 05:50:35;;;;;;;3.17;1.00;;;;;;;11.12;100.00;100435.41;4975692;28;20214;-74
2022/09/18 05:53:10;;;;;;;2.60;1.00;;;;;;;11.17;100.00;100438.81;4978842;28;20251;-74
2022/09/18 05:55:36;;;;;;;3.60;1.40;;;;;;;11.22;100.00;100438.78;4977911;28;20194;-74
2022/09/18 05:58:03;;;;;;;3.73;1.27;;;;;;;11.25;100.00;100437.03;4977821;28;20724;-76
2022/09/18 06:00:31;;;;;;;1.73;1.27;;;;;;;11.31;100.00;100441.31;4980372;28;20205;-75
2022/09/18 06:02:59;;;;;;;1.93;1.00;;;;;;;11.37;100.00;100453.34;4979254;28;20602;-75
2022/09/18 06:05:26;;;;;;;3.20;2.20;;;;;;;11.40;100.00;100453.31;4986677;28;20682;-75
2022/09/18 06:07:51;;;;;;;4.20;1.87;;;;;;;11.44;100.00;100455.84;4980094;28;20284;-75
2022/09/18 06:10:18;;;;;;;2.93;1.53;;;;;;;11.51;100.00;100448.00;4978833;28;20213;-75
2022/09/18 06:12:44;;;;;;;4.20;1.30;;;;;;;11.53;100.00;100452.31;4982331;28;20189;-74
2022/09/18 06:15:10;;;;;;;2.20;1.13;;;;;;;11.59;100.00;100461.75;4981658;28;20281;-76
2022/09/18 06:17:36;;;;;;;1.90;1.07;;;;;;;11.67;100.00;100459.94;4981631;28;20189;-76
2022/09/18 06:20:04;;;;;;;3.23;1.40;;;;;;;11.74;100.00;100455.53;4985011;28;20205;-74
2022/09/18 06:22:30;;;;;;;1.53;1.00;;;;;;;11.82;100.00;100460.63;4984866;28;20726;-75
2022/09/18 06:24:56;;;;;;;1.10;1.00;;;;;;;11.83;100.00;100470.13;4997638;28;20189;-74
2022/09/18 06:27:21;;;;;;;2.10;1.13;;;;;;;11.82;100.00;100466.69;4988952;28;20552;-74
2022/09/18 06:29:46;;;;;;;3.60;1.20;;;;;;;11.79;100.00;100474.50;4989805;28;20213;-74
2022/09/18 06:32:12;;;;;;;1.90;1.10;;;;;;;11.77;100.00;100481.44;4983835;28;20181;-75
2022/09/18 06:34:37;;;;;;;3.67;1.10;;;;;;;11.81;100.00;100479.66;4984330;28;20196;-74
2022/09/18 06:37:02;;;;;;;2.33;0.93;;;;;;;11.87;100.00;100484.78;4983380;28;20198;-75
2022/09/18 06:39:28;;;;;;;2.87;1.50;;;;;;;11.96;100.00;100476.88;4982944;28;20212;-74
2022/09/18 06:41:53;;;;;;;3.20;1.20;;;;;;;12.01;100.00;100487.28;5006703;28;20204;-74
2022/09/18 06:44:19;;;;;;;3.23;1.20;;;;;;;12.04;100.00;100487.22;4987338;28;20194;-74
2022/09/18 06:46:46;;;;;;;1.70;1.07;;;;;;;12.06;100.00;100477.69;4985870;28;20947;-74
2022/09/18 06:49:12;;;;;;;4.20;1.40;;;;;;;12.14;100.00;100478.47;4990112;28;20223;-75
2022/09/18 06:51:39;;;;;;;2.27;1.30;;;;;;;12.27;100.00;100480.88;4988826;28;20189;-75
2022/09/18 06:54:04;;;;;;;2.93;1.30;;;;;;;12.42;100.00;100472.91;4984462;28;20198;-74
2022/09/18 06:56:30;;;;;;;3.40;1.00;;;;;;;12.57;100.00;100458.84;4988146;28;20731;-74
2022/09/18 06:58:55;;;;;;;2.87;1.43;;;;;;;12.69;100.00;100475.97;4994796;28;20190;-74
2022/09/18 07:01:20;;;;;;;2.57;1.17;;;;;;;12.76;100.00;100476.75;4987401;28;20205;-75
2022/09/18 07:03:49;;;;;;;2.40;1.40;;;;;;;12.81;100.00;100470.59;4984477;28;20198;-74
2022/09/18 07:06:14;;;;;;;2.23;1.10;;;;;;;12.86;100.00;100473.13;4989534;28;20204;-74
2022/09/18 07:08:40;;;;;;;2.60;1.20;;;;;;;12.91;100.00;100470.47;4985471;28;20209;-75
2022/09/18 07:11:05;;;;;;;2.23;1.23;;;;;;;12.86;100.00;100473.13;4982475;28;20279;-76
2022/09/18 07:13:31;;;;;;;3.67;1.13;;;;;;;12.76;100.00;100475.03;4981242;28;20256;-74
2022/09/18 07:15:58;;;;;;;2.63;1.27;;;;;;;12.73;100.00;100475.06;4981112;28;20188;-74
2022/09/18 07:18:23;;;;;;;2.80;1.43;;;;;;;12.72;100.00;100470.75;4980408;28;20189;-74
2022/09/18 07:20:49;;;;;;;2.83;0.90;;;;;;;12.72;100.00;100475.06;4982709;28;20596;-75
2022/09/18 07:23:15;;;;;;;2.50;1.13;;;;;;;12.70;100.00;100469.06;4987407;28;20621;-74
2022/09/18 07:25:40;;;;;;;3.17;1.37;;;;;;;12.71;100.00;100476.81;4986893;28;20281;-75
2022/09/18 07:28:07;;;;;;;1.90;1.23;;;;;;;12.67;100.00;100469.09;4983407;28;20212;-74
2022/09/18 07:30:38;;;;;;;2.17;1.13;;;;;;;12.70;100.00;100472.50;4987771;28;20255;-74
2022/09/18 07:33:05;;;;;;;2.13;1.10;;;;;;;12.79;100.00;100467.16;4981288;28;20249;-74
2022/09/18 07:35:31;;;;;;;2.33;1.33;;;;;;;12.95;100.00;100477.31;4985102;28;20187;-74
2022/09/18 07:37:58;;;;;;;4.57;1.40;;;;;;;13.08;100.00;100478.84;4977359;28;20186;-73
2022/09/18 07:40:24;;;;;;;2.73;1.57;;;;;;;13.21;100.00;100473.47;4975717;28;20206;-74
2022/09/18 07:42:49;;;;;;;5.57;1.40;;;;;;;13.28;100.00;100469.84;4981078;28;20199;-75
2022/09/18 07:45:14;;;;;;;1.70;1.00;;;;;;;13.41;100.00;100473.97;4979913;28;20284;-75
2022/09/18 07:47:40;;;;;;;1.27;0.90;;;;;;;13.64;100.00;100479.66;4983600;28;20219;-74
2022/09/18 07:50:07;;;;;;;1.30;0.80;;;;;;;13.90;100.00;100473.94;4986038;28;20484;-74
2022/09/18 07:52:33;;;;;;;2.00;1.03;;;;;;;14.12;99.29;100474.38;4989739;28;20213;-74
2022/09/18 07:54:59;;;;;;;2.73;1.03;;;;;;;14.26;98.86;100475.81;4990590;28;20225;-75
2022/09/18 07:57:24;;;;;;;2.33;0.90;;;;;;;14.36;98.42;100476.50;4986685;28;20224;-74
2022/09/18 07:59:49;;;;;;;3.53;1.70;;;;;;;14.41;97.76;100474.66;4977251;28;20217;-74
2022/09/18 08:02:15;;;;;;;2.07;1.13;;;;;;;14.31;96.80;100481.81;4981781;28;20206;-74
2022/09/18 08:04:40;;;;;;;2.70;1.37;;;;;;;14.18;97.11;100482.06;4983328;28;20675;-73
2022/09/18 08:07:05;;;;;;;2.97;1.00;;;;;;;14.07;97.34;100485.78;4978280;28;20186;-73
2022/09/18 08:09:30;;;;;;;1.43;1.10;;;;;;;14.02;98.28;100488.47;4981942;28;20225;-74
2022/09/18 08:11:56;;;;;;;2.60;1.20;;;;;;;14.08;98.44;100490.09;4987012;28;20194;-74
2022/09/18 08:14:21;;;;;;;3.50;0.90;;;;;;;14.07;98.54;100499.63;4985017;28;20183;-74
2022/09/18 08:16:47;;;;;;;2.17;1.00;;;;;;;14.07;98.99;100497.03;4979055;28;20652;-74
2022/09/18 08:19:12;;;;;;;1.20;0.73;;;;;;;14.09;98.85;100495.25;4989901;28;20617;-74
2022/09/18 08:21:37;;;;;;;1.70;0.90;;;;;;;14.20;99.16;100497.63;4984038;28;20283;-74
2022/09/18 08:24:03;;;;;;;1.63;0.87;;;;;;;14.35;99.17;100493.00;4984898;28;20185;-74
2022/09/18 08:26:28;;;;;;;2.10;1.10;;;;;;;14.49;98.56;100496.16;4976655;28;20288;-74
2022/09/18 08:28:54;;;;;;;1.57;0.97;;;;;;;14.61;97.52;100488.06;5005897;28;20209;-75
2022/09/18 08:31:19;;;;;;;2.47;1.20;;;;;;;14.67;97.63;100489.69;4999903;28;20177;-74
2022/09/18 08:33:44;;;;;;;3.50;1.20;;;;;;;14.76;97.54;100486.91;5002305;28;20194;-74
2022/09/18 08:36:10;;;;;;;3.03;1.30;;;;;;;14.94;95.89;100490.81;5002183;28;20192;-74
2022/09/18 08:38:35;;;;;;;3.80;1.30;;;;;;;15.01;95.31;100488.09;5002481;28;20204;-74
2022/09/18 08:41:00;;;;;;;1.57;1.20;;;;;;;15.11;95.87;100486.94;4997521;28;20209;-75
2022/09/18 08:44:05;;;;;;;3.83;1.23;;;;;;;15.34;95.58;100486.38;5001789;28;20194;-74
2022/09/18 08:46:41;;;;;;;1.77;1.03;;;;;;;15.57;94.79;100484.06;4985328;28;20286;-74
2022/09/18 08:49:22;;;;;;;2.80;1.00;;;;;;;15.77;93.08;100481.78;4979044;28;20292;-73
2022/09/18 08:52:02;;;;;;;1.13;1.00;;;;;;;15.96;93.21;100478.66;4984110;28;20190;-73
2022/09/18 08:54:49;;;;;;;3.33;1.50;;;;;;;16.31;91.12;100476.78;4972110;28;20268;-73
2022/09/18 08:57:24;;;;;;;3.27;1.00;;;;;;;16.44;90.65;100472.06;4975751;28;20617;-74
2022/09/18 09:00:18;;;;;;;4.90;1.40;;;;;;;16.43;89.91;100468.59;4981101;28;20213;-74
2022/09/18 09:02:48;;;;;;;4.47;1.70;;;;;;;16.58;89.45;100464.66;4977778;28;20205;-75
2022/09/18 09:05:27;;;;;;;3.77;1.27;;;;;;;16.64;89.58;100466.22;4983025;28;20352;-75
2022/09/18 09:08:02;;;;;;;1.60;1.00;;;;;;;16.65;89.80;100459.22;4982607;28;20384;-73
2022/09/18 09:10:55;;;;;;;2.07;0.93;;;;;;;16.71;90.12;100465.09;4993125;28;20214;-74
2022/09/18 09:13:39;;;;;;;1.73;0.97;;;;;;;16.96;89.97;100469.59;4981839;28;20206;-74
2022/09/18 09:16:27;;;;;;;2.60;1.00;;;;;;;17.25;89.39;100469.50;4984744;28;20189;-74
2022/09/18 09:19:01;;;;;;;3.73;1.10;;;;;;;17.41;86.50;100477.72;4987954;28;20190;-76
2022/09/18 09:21:32;;;;;;;3.80;0.93;;;;;;;17.39;85.93;100466.44;4988217;28;20257;-74
2022/09/18 09:24:19;;;;;;;2.97;1.10;;;;;;;17.43;86.82;100473.28;4988085;28;20193;-72
2022/09/18 09:26:47;;;;;;;3.00;0.90;;;;;;;17.63;87.15;100470.81;4992213;28;20197;-74
2022/09/18 09:29:23;;;;;;;2.07;0.93;;;;;;;17.82;86.31;100459.69;4987496;28;20582;-73
2022/09/18 09:31:56;;;;;;;1.80;1.17;;;;;;;18.06;84.64;100463.19;4985954;28;20281;-73
2022/09/18 09:34:46;;;;;;;2.93;1.17;;;;;;;18.13;83.27;100464.69;4988463;28;20197;-74
2022/09/18 09:37:21;;;;;;;2.97;1.13;;;;;;;18.22;83.51;100460.00;4979429;28;20191;-74
2022/09/18 09:40:07;;;;;;;4.00;1.10;;;;;;;18.33;83.03;100464.84;4982489;28;20245;-74
2022/09/18 09:42:59;;;;;;;2.43;1.20;;;;;;;18.31;82.15;100459.63;4984523;28;20216;-72
2022/09/18 09:45:30;;;;;;;1.77;1.07;;;;;;;18.34;82.33;100462.13;4989235;28;20249;-73
2022/09/18 09:48:42;;;;;;;4.20;1.10;;;;;;;18.40;82.74;100461.91;4989518;28;20243;-74
2022/09/18 09:51:18;;;;;;;5.00;1.20;;;;;;;18.45;80.68;100451.25;4926338;29;20206;-74
2022/09/18 09:53:44;;;;;;;3.30;1.00;;;;;;;18.34;81.35;100450.81;4923044;29;21078;-74
2022/09/18 09:56:21;;;;;;;4.93;1.23;;;;;;;18.30;81.58;100455.34;4963314;28;20208;-74
2022/09/18 09:59:18;;;;;;;2.17;1.00;;;;;;;18.29;81.19;100451.00;4989462;28;20193;-74
2022/09/18 10:01:52;;;;;;;4.83;1.20;;;;;;;18.31;81.48;100451.78;4979060;28;20205;-74
2022/09/18 10:04:37;;;;;;;3.80;1.87;;;;;;;18.41;81.81;100455.75;4984211;28;20188;-74
2022/09/18 10:07:16;;;;;;;3.03;1.30;;;;;;;18.70;80.42;100445.88;4982101;28;20192;-73
2022/09/18 10:09:50;;;;;;;2.83;1.50;;;;;;;19.06;79.69;100443.63;4982261;28;20220;-74
2022/09/18 10:12:40;;;;;;;2.73;1.43;;;;;;;19.23;79.22;100456.03;4981865;28;20719;-73
2022/09/18 10:15:17;;;;;;;3.43;1.40;;;;;;;19.40;78.56;100443.03;4982847;28;20664;-74
2022/09/18 10:17:45;;;;;;;2.63;1.33;;;;;;;19.55;77.11;100431.00;4978960;28;20212;-75
2022/09/18 10:20:15;;;;;;;2.50;1.10;;;;;;;19.54;76.85;100431.91;4988487;28;20208;-73
2022/09/18 10:22:41;;;;;;;3.17;1.20;;;;;;;19.68;74.77;100433.06;4981269;28;20363;-74
2022/09/18 10:25:19;;;;;;;3.13;1.63;;;;;;;19.68;73.90;100430.44;4989956;28;20294;-74
2022/09/18 10:27:44;;;;;;;3.77;1.27;;;;;;;19.49;75.26;100426.03;4985991;28;21259;-73
2022/09/18 10:30:13;;;;;;;2.80;0.97;;;;;;;19.44;75.83;100423.59;4986801;28;20211;-73
2022/09/18 10:32:42;;;;;;;2.33;1.13;;;;;;;19.42;77.01;100428.06;4975714;28;20211;-76
2022/09/18 10:35:41;;;;;;;2.63;1.00;;;;;;;19.37;76.53;100419.53;4982888;28;20217;-73
2022/09/18 10:38:27;;;;;;;2.00;1.07;;;;;;;19.34;77.43;100414.41;4985796;28;20212;-73
2022/09/18 10:40:52;;;;;;;3.83;1.10;;;;;;;19.40;76.75;100411.53;4986862;28;20204;-73
2022/09/18 10:43:19;;;;;;;1.53;0.87;;;;;;;19.17;76.84;100407.28;4984168;28;20198;-74
2022/09/18 10:45:51;;;;;;;3.27;1.10;;;;;;;18.97;78.46;100408.16;4980050;28;20667;-74
2022/09/18 10:48:23;;;;;;;1.60;0.70;;;;;;;18.97;79.40;100405.53;4979132;28;20267;-74
2022/09/18 10:50:56;;;;;;;2.37;1.10;;;;;;;19.07;79.16;100401.59;4984323;28;20224;-76
2022/09/18 10:53:32;;;;;;;2.23;1.00;;;;;;;19.17;77.57;100405.50;4978863;28;20186;-72
2022/09/18 10:56:13;;;;;;;1.93;1.00;;;;;;;19.24;76.81;100403.47;4977490;28;20267;-74
2022/09/18 10:58:39;;;;;;;1.53;0.70;;;;;;;19.31;74.40;100401.44;4977705;28;20186;-74
2022/09/18 11:01:06;;;;;;;2.07;0.70;;;;;;;19.35;73.51;100405.63;4984216;28;20703;-73
2022/09/18 11:03:36;;;;;;;2.23;0.90;;;;;;;19.42;73.17;100399.22;4981401;28;20704;-76
2022/09/18 11:06:05;;;;;;;1.73;0.70;;;;;;;19.51;72.58;100397.94;4982345;28;20192;-74
2022/09/18 11:08:35;;;;;;;1.57;0.67;;;;;;;19.55;72.29;100402.13;4977998;28;21107;-74
2022/09/18 11:11:22;;;;;;;1.10;0.80;;;;;;;19.54;71.84;100397.78;4981089;28;20217;-73
2022/09/18 11:13:52;;;;;;;1.97;0.80;;;;;;;19.59;71.43;100403.69;4983360;28;20181;-73
2022/09/18 11:16:23;;;;;;;0.83;0.70;;;;;;;19.72;71.66;100395.25;4985863;28;20193;-72
2022/09/18 11:19:14;;;;;;;2.20;0.80;;;;;;;19.82;70.73;100396.53;4980936;28;20181;-74
2022/09/18 11:21:44;;;;;;;2.00;0.80;;;;;;;19.85;69.83;100390.31;4980063;28;20189;-74
2022/09/18 11:24:27;;;;;;;1.27;0.77;;;;;;;19.90;70.12;100388.34;4981962;28;20193;-75
2022/09/18 11:26:58;;;;;;;1.97;0.80;;;;;;;19.87;70.27;100378.84;4980247;28;20181;-73
2022/09/18 11:29:31;;;;;;;1.80;0.70;;;;;;;20.01;70.49;100385.22;4978073;28;20955;-75
2022/09/18 11:32:09;;;;;;;1.03;0.80;;;;;;;20.28;70.18;100375.19;4985645;28;20182;-74
2022/09/18 11:34:43;;;;;;;1.67;0.90;;;;;;;20.44;69.50;100369.16;4988641;28;20201;-74
2022/09/18 11:37:20;;;;;;;1.07;0.73;;;;;;;20.25;69.19;100368.31;4983097;28;20267;-73